Time;durP1;ratioP1;P1;durP2;ratioP2;P2;SDS_P1;SDS_P2;PMS_P1;PMS_P2;Temp;Humidity;BMP_temperature;BMP_pressure;BME280_temperature;BME280_humidity;BME280_pressure;Samples;Min_cycle;Max_cycle;Signal;HPM_P1;HPM_P2
2024/02/22 00:01:37;;;;;;;2.23;1.40;;;;;;;;;;5022463;28;20214;-56
2024/02/22 00:04:03;;;;;;;1.17;1.10;;;;;;;;;;5025349;28;20186;-57
2024/02/22 00:06:29;;;;;;;1.30;1.23;;;;;;;;;;5023570;28;20528;-56
2024/02/22 00:08:55;;;;;;;1.10;1.00;;;;;;;;;;5021673;28;20189;-56
2024/02/22 00:11:21;;;;;;;3.77;1.20;;;;;;;;;;5017240;28;20195;-57
2024/02/22 00:13:48;;;;;;;1.20;1.10;;;;;;;;;;5020946;28;20264;-58
2024/02/22 00:16:15;;;;;;;1.37;1.20;;;;;;;;;;5022039;28;20209;-56
2024/02/22 00:18:41;;;;;;;1.00;0.90;;;;;;;;;;5019163;28;20225;-56
2024/02/22 00:21:08;;;;;;;1.33;1.10;;;;;;;;;;5017774;28;20234;-57
2024/02/22 00:23:34;;;;;;;0.90;0.90;;;;;;;;;;5019672;28;20224;-56
2024/02/22 00:26:00;;;;;;;1.20;1.00;;;;;;;;;;5017979;28;20355;-57
2024/02/22 00:28:26;;;;;;;1.83;1.27;;;;;;;;;;5028479;28;20196;-56
2024/02/22 00:30:52;;;;;;;1.10;1.00;;;;;;;;;;5025196;28;20178;-56
2024/02/22 00:33:18;;;;;;;2.70;0.90;;;;;;;;;;5023168;28;20792;-58
2024/02/22 00:35:45;;;;;;;2.80;1.30;;;;;;;;;;5022053;28;20174;-58
2024/02/22 00:38:11;;;;;;;1.07;0.90;;;;;;;;;;5019779;28;20178;-61
2024/02/22 00:40:37;;;;;;;1.60;1.50;;;;;;;;;;5023848;28;20204;-55
2024/02/22 00:43:03;;;;;;;1.77;1.33;;;;;;;;;;5018616;28;20221;-57
2024/02/22 00:45:33;;;;;;;2.50;0.90;;;;;;;;;;5018432;28;20235;-57
2024/02/22 00:47:59;;;;;;;1.53;1.30;;;;;;;;;;5015217;28;20337;-56
2024/02/22 00:50:26;;;;;;;1.13;1.03;;;;;;;;;;5021803;28;20193;-57
2024/02/22 00:52:52;;;;;;;1.40;1.30;;;;;;;;;;5021359;28;20655;-56
2024/02/22 00:55:18;;;;;;;0.93;0.93;;;;;;;;;;5018206;28;20530;-55
2024/02/22 00:57:44;;;;;;;1.40;1.20;;;;;;;;;;5021489;28;20665;-56
2024/02/22 01:00:11;;;;;;;1.47;1.10;;;;;;;;;;5024616;28;20203;-56
2024/02/22 01:02:38;;;;;;;1.37;1.00;;;;;;;;;;5013896;28;20179;-56
2024/02/22 01:05:04;;;;;;;1.60;1.20;;;;;;;;;;5021675;28;20649;-56
2024/02/22 01:07:33;;;;;;;1.30;1.20;;;;;;;;;;5025411;28;20186;-57
2024/02/22 01:09:59;;;;;;;1.23;1.13;;;;;;;;;;5020628;28;20200;-62
2024/02/22 01:12:25;;;;;;;1.20;1.10;;;;;;;;;;5024610;28;20288;-64
2024/02/22 01:14:52;;;;;;;2.87;1.80;;;;;;;;;;5023492;28;20235;-61
2024/02/22 01:17:17;;;;;;;2.90;1.47;;;;;;;;;;5023956;28;20194;-60
2024/02/22 01:19:47;;;;;;;1.20;1.10;;;;;;;;;;5020630;28;20575;-63
2024/02/22 01:22:13;;;;;;;1.53;1.40;;;;;;;;;;5022970;28;20534;-62
2024/02/22 01:24:40;;;;;;;1.47;1.13;;;;;;;;;;5017985;28;20169;-63
2024/02/22 01:27:07;;;;;;;1.43;1.30;;;;;;;;;;5021780;28;20264;-64
2024/02/22 01:29:33;;;;;;;2.30;1.57;;;;;;;;;;5018021;28;20178;-64
2024/02/22 01:31:59;;;;;;;1.43;1.33;;;;;;;;;;5014849;28;20677;-63
2024/02/22 01:34:25;;;;;;;1.40;1.23;;;;;;;;;;5015267;28;20182;-64
2024/02/22 01:36:51;;;;;;;1.30;1.20;;;;;;;;;;5016709;28;20194;-62
2024/02/22 01:39:17;;;;;;;1.43;1.10;;;;;;;;;;5017232;28;20594;-60
2024/02/22 01:41:44;;;;;;;1.33;1.10;;;;;;;;;;5020786;28;20233;-63
2024/02/22 01:44:10;;;;;;;1.30;1.20;;;;;;;;;;5016062;28;20649;-62
2024/02/22 01:46:37;;;;;;;1.13;1.03;;;;;;;;;;5020158;28;20182;-65
2024/02/22 01:49:03;;;;;;;1.10;1.00;;;;;;;;;;5017510;28;20253;-64
2024/02/22 01:51:29;;;;;;;2.23;1.17;;;;;;;;;;5016190;28;20177;-63
2024/02/22 01:53:56;;;;;;;1.20;1.10;;;;;;;;;;5016713;28;20248;-65
2024/02/22 01:56:22;;;;;;;1.37;1.20;;;;;;;;;;5013725;28;20194;-64
2024/02/22 01:58:50;;;;;;;2.47;1.10;;;;;;;;;;5019102;28;20177;-65
2024/02/22 02:01:17;;;;;;;1.20;1.10;;;;;;;;;;5016501;28;20216;-64
2024/02/22 02:03:43;;;;;;;1.03;1.00;;;;;;;;;;5021855;28;20535;-65
2024/02/22 02:06:09;;;;;;;1.07;1.03;;;;;;;;;;5021591;28;20200;-64
2024/02/22 02:08:39;;;;;;;1.40;1.10;;;;;;;;;;5017848;28;20441;-64
2024/02/22 02:11:05;;;;;;;1.37;1.10;;;;;;;;;;5016888;28;20178;-64
2024/02/22 02:13:31;;;;;;;1.93;0.90;;;;;;;;;;5019381;28;20629;-64
2024/02/22 02:15:57;;;;;;;1.20;1.10;;;;;;;;;;5017648;28;20209;-62
2024/02/22 02:18:23;;;;;;;0.90;0.70;;;;;;;;;;5021936;28;20228;-63
2024/02/22 02:20:58;;;;;;;0.90;0.90;;;;;;;;;;5019917;28;20190;-60
2024/02/22 02:23:24;;;;;;;1.47;0.97;;;;;;;;;;5022285;28;20217;-65
2024/02/22 02:25:50;;;;;;;0.97;0.93;;;;;;;;;;5027018;28;20186;-63
2024/02/22 02:28:17;;;;;;;0.70;0.70;;;;;;;;;;5019192;28;20178;-63
2024/02/22 02:30:43;;;;;;;1.07;1.07;;;;;;;;;;5014393;28;20205;-63
2024/02/22 02:33:09;;;;;;;0.70;0.70;;;;;;;;;;5020853;28;20196;-64
2024/02/22 02:35:37;;;;;;;0.70;0.70;;;;;;;;;;5022250;28;20403;-64
2024/02/22 02:38:14;;;;;;;2.30;0.80;;;;;;;;;;5027243;28;20744;-64
2024/02/22 02:40:40;;;;;;;1.00;1.00;;;;;;;;;;5018354;28;20229;-64
2024/02/22 02:43:07;;;;;;;2.47;0.93;;;;;;;;;;5019099;28;20224;-63
2024/02/22 02:45:33;;;;;;;0.90;0.90;;;;;;;;;;5017979;28;20197;-64
2024/02/22 02:47:59;;;;;;;0.73;0.73;;;;;;;;;;5023376;28;20181;-63
2024/02/22 02:50:25;;;;;;;1.10;0.93;;;;;;;;;;5021531;28;20182;-64
2024/02/22 02:52:52;;;;;;;1.43;1.17;;;;;;;;;;5021882;28;20182;-64
2024/02/22 02:55:19;;;;;;;1.20;1.10;;;;;;;;;;5017705;28;20284;-63
2024/02/22 02:57:45;;;;;;;1.77;1.27;;;;;;;;;;5017650;28;20201;-64
2024/02/22 03:00:12;;;;;;;1.10;1.00;;;;;;;;;;5020571;28;20746;-63
2024/02/22 03:02:40;;;;;;;1.83;0.80;;;;;;;;;;5026358;28;20190;-64
2024/02/22 03:05:06;;;;;;;2.00;0.93;;;;;;;;;;5017231;28;20664;-64
2024/02/22 03:07:32;;;;;;;1.17;1.00;;;;;;;;;;5019154;28;20190;-64
2024/02/22 03:09:58;;;;;;;0.87;0.87;;;;;;;;;;5016337;28;20178;-64
2024/02/22 03:12:24;;;;;;;0.97;0.90;;;;;;;;;;5014834;28;21239;-63
2024/02/22 03:14:50;;;;;;;2.07;0.90;;;;;;;;;;5017100;28;20174;-63
2024/02/22 03:17:17;;;;;;;0.90;0.90;;;;;;;;;;5015628;28;20590;-64
2024/02/22 03:19:43;;;;;;;0.90;0.90;;;;;;;;;;5018225;28;20233;-63
2024/02/22 03:22:09;;;;;;;1.13;0.83;;;;;;;;;;5025318;28;20278;-63
2024/02/22 03:24:36;;;;;;;0.87;0.80;;;;;;;;;;5018905;28;20227;-63
2024/02/22 03:27:03;;;;;;;1.30;0.80;;;;;;;;;;5021945;28;20205;-64
2024/02/22 03:29:29;;;;;;;1.03;0.87;;;;;;;;;;5017035;28;20178;-64
2024/02/22 03:31:55;;;;;;;0.77;0.77;;;;;;;;;;5027333;28;20648;-64
2024/02/22 03:34:21;;;;;;;0.70;0.70;;;;;;;;;;5025848;28;20637;-61
2024/02/22 03:36:48;;;;;;;1.03;0.90;;;;;;;;;;5019152;28;20186;-65
2024/02/22 03:39:14;;;;;;;0.80;0.80;;;;;;;;;;5021318;28;20182;-63
2024/02/22 03:41:40;;;;;;;1.10;0.70;;;;;;;;;;5016011;28;20193;-61
2024/02/22 03:44:06;;;;;;;0.90;0.90;;;;;;;;;;5027604;28;20193;-64
2024/02/22 03:46:32;;;;;;;0.70;0.70;;;;;;;;;;5021263;28;20308;-64
2024/02/22 03:48:58;;;;;;;1.00;0.90;;;;;;;;;;5017201;28;20904;-63
2024/02/22 03:51:24;;;;;;;0.97;0.63;;;;;;;;;;5017582;28;20177;-63
2024/02/22 03:53:50;;;;;;;1.03;0.93;;;;;;;;;;5010364;28;20525;-64
2024/02/22 03:56:19;;;;;;;0.70;0.70;;;;;;;;;;5018552;28;20189;-64
2024/02/22 03:58:45;;;;;;;0.70;0.70;;;;;;;;;;5024934;28;20205;-64
2024/02/22 04:01:11;;;;;;;0.80;0.80;;;;;;;;;;5016158;28;20233;-63
2024/02/22 04:03:37;;;;;;;1.33;0.77;;;;;;;;;;5022780;28;20177;-63
2024/02/22 04:06:03;;;;;;;1.80;0.80;;;;;;;;;;5020752;28;21312;-63
2024/02/22 04:08:29;;;;;;;1.73;0.70;;;;;;;;;;5021534;28;20739;-64
2024/02/22 04:10:55;;;;;;;0.90;0.90;;;;;;;;;;5014341;28;20186;-64
2024/02/22 04:13:21;;;;;;;1.00;0.80;;;;;;;;;;5015268;28;20232;-63
2024/02/22 04:15:49;;;;;;;0.73;0.73;;;;;;;;;;5015276;28;20178;-64
2024/02/22 04:18:15;;;;;;;1.00;1.00;;;;;;;;;;5016383;28;20370;-64
2024/02/22 04:20:41;;;;;;;1.20;1.20;;;;;;;;;;5023130;28;20330;-64
2024/02/22 04:23:07;;;;;;;0.97;0.93;;;;;;;;;;5015897;28;20181;-64
2024/02/22 04:25:33;;;;;;;0.73;0.73;;;;;;;;;;5013076;28;20228;-64
2024/02/22 04:28:00;;;;;;;1.00;1.00;;;;;;;;;;5016525;28;20179;-63
2024/02/22 04:30:26;;;;;;;0.80;0.80;;;;;;;;;;5020503;28;20660;-64
2024/02/22 04:32:52;;;;;;;0.90;0.90;;;;;;;;;;5026086;28;20183;-64
2024/02/22 04:35:18;;;;;;;1.30;1.07;;;;;;;;;;5019036;28;20185;-63
2024/02/22 04:37:44;;;;;;;1.40;1.30;;;;;;;;;;5010160;28;20332;-63
2024/02/22 04:40:11;;;;;;;1.27;1.13;;;;;;;;;;5015694;28;20202;-63
2024/02/22 04:42:38;;;;;;;2.00;1.07;;;;;;;;;;5018175;28;20205;-60
2024/02/22 04:45:04;;;;;;;2.53;1.00;;;;;;;;;;5009484;28;20255;-59
2024/02/22 04:47:36;;;;;;;1.00;0.90;;;;;;;;;;5010542;28;20182;-60
2024/02/22 04:50:03;;;;;;;0.80;0.80;;;;;;;;;;5017952;28;20717;-59
2024/02/22 04:52:29;;;;;;;1.20;1.10;;;;;;;;;;5020355;28;20265;-60
2024/02/22 04:54:56;;;;;;;3.70;1.10;;;;;;;;;;5020282;28;20189;-59
2024/02/22 04:57:22;;;;;;;1.53;1.00;;;;;;;;;;5017459;28;20630;-59
2024/02/22 04:59:48;;;;;;;1.30;1.20;;;;;;;;;;5020343;28;20170;-59
2024/02/22 05:02:15;;;;;;;1.50;1.30;;;;;;;;;;5020294;28;20186;-59
2024/02/22 05:04:41;;;;;;;2.80;1.10;;;;;;;;;;5018976;28;20560;-59
2024/02/22 05:07:07;;;;;;;3.00;1.20;;;;;;;;;;5021542;28;20220;-59
2024/02/22 05:09:33;;;;;;;1.30;1.20;;;;;;;;;;5014123;28;20197;-59
2024/02/22 05:11:59;;;;;;;1.20;1.10;;;;;;;;;;5022408;28;20854;-59
2024/02/22 05:14:25;;;;;;;1.20;1.10;;;;;;;;;;5019142;28;20605;-60
2024/02/22 05:16:51;;;;;;;1.40;1.27;;;;;;;;;;5013278;28;20182;-58
2024/02/22 05:19:17;;;;;;;1.30;1.20;;;;;;;;;;5011618;28;20310;-60
2024/02/22 05:21:43;;;;;;;1.33;1.23;;;;;;;;;;5016586;28;20733;-59
2024/02/22 05:24:12;;;;;;;1.53;1.43;;;;;;;;;;5015897;28;20317;-59
2024/02/22 05:26:38;;;;;;;2.03;1.60;;;;;;;;;;5015281;28;20186;-60
2024/02/22 05:29:05;;;;;;;2.90;1.60;;;;;;;;;;5017181;28;20714;-59
2024/02/22 05:31:31;;;;;;;1.50;1.37;;;;;;;;;;5019590;28;20222;-59
2024/02/22 05:33:57;;;;;;;1.57;1.47;;;;;;;;;;5018641;28;20702;-58
2024/02/22 05:36:23;;;;;;;1.70;1.60;;;;;;;;;;5020904;28;20277;-58
2024/02/22 05:38:49;;;;;;;1.70;1.40;;;;;;;;;;5023582;28;20213;-58
2024/02/22 05:41:15;;;;;;;1.63;1.53;;;;;;;;;;5021010;28;20570;-60
2024/02/22 05:43:42;;;;;;;3.70;1.90;;;;;;;;;;5021256;28;20197;-60
2024/02/22 05:46:08;;;;;;;2.80;1.80;;;;;;;;;;5013760;28;20170;-60
2024/02/22 05:48:34;;;;;;;1.90;1.70;;;;;;;;;;5012407;28;20178;-60
2024/02/22 05:51:00;;;;;;;3.23;1.80;;;;;;;;;;5019996;28;20292;-60
2024/02/22 05:53:26;;;;;;;2.63;1.70;;;;;;;;;;5015654;28;20186;-60
2024/02/22 05:55:52;;;;;;;1.90;1.80;;;;;;;;;;5017386;28;20313;-60
2024/02/22 05:58:18;;;;;;;1.80;1.70;;;;;;;;;;5009729;28;20194;-60
2024/02/22 06:00:45;;;;;;;2.00;1.77;;;;;;;;;;5017452;28;20704;-59
2024/02/22 06:03:11;;;;;;;2.47;2.10;;;;;;;;;;5016304;28;20243;-60
2024/02/22 06:05:37;;;;;;;2.37;2.17;;;;;;;;;;5021260;28;20186;-60
2024/02/22 06:08:04;;;;;;;2.63;1.80;;;;;;;;;;5021096;28;20205;-60
2024/02/22 06:10:30;;;;;;;2.30;2.10;;;;;;;;;;5015409;28;20511;-60
2024/02/22 06:12:56;;;;;;;2.40;2.20;;;;;;;;;;5021838;28;20366;-59
2024/02/22 06:15:23;;;;;;;4.77;2.47;;;;;;;;;;5021972;28;20177;-60
2024/02/22 06:17:49;;;;;;;2.30;2.10;;;;;;;;;;5024650;28;20565;-60
2024/02/22 06:20:16;;;;;;;2.20;2.00;;;;;;;;;;5023229;28;20289;-59
2024/02/22 06:22:42;;;;;;;2.10;1.90;;;;;;;;;;5019261;28;20197;-60
2024/02/22 06:25:08;;;;;;;3.40;2.27;;;;;;;;;;5016198;28;20220;-60
2024/02/22 06:27:35;;;;;;;2.10;1.90;;;;;;;;;;5022272;28;20199;-59
2024/02/22 06:30:02;;;;;;;2.57;2.37;;;;;;;;;;5021579;28;20221;-60
2024/02/22 06:32:28;;;;;;;2.17;1.83;;;;;;;;;;5021241;28;20185;-60
2024/02/22 06:34:54;;;;;;;2.13;1.93;;;;;;;;;;5023552;28;20204;-59
2024/02/22 06:37:20;;;;;;;3.23;1.70;;;;;;;;;;5013353;28;20183;-60
2024/02/22 06:39:46;;;;;;;4.40;1.93;;;;;;;;;;5019217;28;20221;-59
2024/02/22 06:42:12;;;;;;;1.80;1.70;;;;;;;;;;5015289;28;20202;-60
2024/02/22 06:44:38;;;;;;;1.93;1.73;;;;;;;;;;5026790;28;20189;-60
2024/02/22 06:47:05;;;;;;;3.67;1.53;;;;;;;;;;5008184;28;20193;-60
2024/02/22 06:49:31;;;;;;;1.80;1.60;;;;;;;;;;5014728;28;20220;-60
2024/02/22 06:52:00;;;;;;;2.97;1.90;;;;;;;;;;5011995;28;20267;-59
2024/02/22 06:54:26;;;;;;;1.93;1.80;;;;;;;;;;5012249;28;20667;-59
2024/02/22 06:56:52;;;;;;;2.90;1.80;;;;;;;;;;5017093;28;20182;-59
2024/02/22 06:59:18;;;;;;;2.57;1.80;;;;;;;;;;5016015;28;20258;-59
2024/02/22 07:01:44;;;;;;;1.60;1.50;;;;;;;;;;5011744;28;20650;-64
2024/02/22 07:04:11;;;;;;;1.93;1.60;;;;;;;;;;5012058;28;20186;-63
2024/02/22 07:06:37;;;;;;;1.90;1.80;;;;;;;;;;5021312;28;20202;-61
2024/02/22 07:09:03;;;;;;;2.13;1.73;;;;;;;;;;5013535;28;20182;-63
2024/02/22 07:11:30;;;;;;;2.03;1.60;;;;;;;;;;5019668;28;20400;-63
2024/02/22 07:13:57;;;;;;;1.70;1.53;;;;;;;;;;5017012;28;20194;-63
2024/02/22 07:16:23;;;;;;;2.63;1.70;;;;;;;;;;5015241;28;20183;-62
2024/02/22 07:18:49;;;;;;;1.80;1.70;;;;;;;;;;5018580;28;20693;-62
2024/02/22 07:21:16;;;;;;;3.03;1.90;;;;;;;;;;5023371;28;20217;-60
2024/02/22 07:23:43;;;;;;;2.30;1.90;;;;;;;;;;5021981;28;20633;-62
2024/02/22 07:26:12;;;;;;;2.93;1.43;;;;;;;;;;5022158;28;20186;-62
2024/02/22 07:28:39;;;;;;;2.20;2.00;;;;;;;;;;5027314;28;20181;-62
2024/02/22 07:31:06;;;;;;;1.70;1.60;;;;;;;;;;5021959;28;20694;-62
2024/02/22 07:33:32;;;;;;;1.80;1.70;;;;;;;;;;5022618;28;20875;-61
2024/02/22 07:35:58;;;;;;;1.97;1.77;;;;;;;;;;5023196;28;20182;-63
2024/02/22 07:38:25;;;;;;;2.90;1.90;;;;;;;;;;5028042;28;20655;-63
2024/02/22 07:40:51;;;;;;;2.87;2.57;;;;;;;;;;5021282;28;20201;-63
2024/02/22 07:43:17;;;;;;;2.57;2.20;;;;;;;;;;5019891;28;20300;-62
2024/02/22 07:45:43;;;;;;;2.00;1.90;;;;;;;;;;5021107;28;20202;-63
2024/02/22 07:48:09;;;;;;;2.30;2.10;;;;;;;;;;5022763;28;20175;-56
2024/02/22 07:50:36;;;;;;;3.23;2.20;;;;;;;;;;5017818;28;20264;-57
2024/02/22 07:53:02;;;;;;;3.33;2.10;;;;;;;;;;5021074;28;20589;-58
2024/02/22 07:55:28;;;;;;;2.50;2.30;;;;;;;;;;5020939;28;20190;-57
2024/02/22 07:57:54;;;;;;;2.40;2.20;;;;;;;;;;5023492;28;20181;-56
2024/02/22 08:00:21;;;;;;;2.53;2.33;;;;;;;;;;5019713;28;20296;-61
2024/02/22 08:02:47;;;;;;;4.87;2.50;;;;;;;;;;5021066;28;20242;-60
2024/02/22 08:05:13;;;;;;;2.73;2.53;;;;;;;;;;5018520;28;20186;-60
2024/02/22 08:07:40;;;;;;;2.37;1.97;;;;;;;;;;5014836;28;20318;-60
2024/02/22 08:10:06;;;;;;;2.87;2.60;;;;;;;;;;5018839;28;20197;-60
2024/02/22 08:12:32;;;;;;;2.57;2.37;;;;;;;;;;5010889;28;20209;-60
2024/02/22 08:15:04;;;;;;;2.47;2.27;;;;;;;;;;5011991;28;20542;-60
2024/02/22 08:17:31;;;;;;;2.47;2.27;;;;;;;;;;5013974;28;20212;-60
2024/02/22 08:19:57;;;;;;;3.40;2.57;;;;;;;;;;5012622;28;20225;-60
2024/02/22 08:22:23;;;;;;;2.50;2.30;;;;;;;;;;5015541;28;20227;-60
2024/02/22 08:24:49;;;;;;;2.83;2.63;;;;;;;;;;5016647;28;20193;-60
2024/02/22 08:27:15;;;;;;;2.60;2.40;;;;;;;;;;5025240;28;20571;-60
2024/02/22 08:29:48;;;;;;;2.43;2.23;;;;;;;;;;5012751;28;20214;-60
2024/02/22 08:32:14;;;;;;;4.90;2.50;;;;;;;;;;5012060;28;20204;-60
2024/02/22 08:34:40;;;;;;;3.00;2.27;;;;;;;;;;5008295;28;20202;-60
2024/02/22 08:37:06;;;;;;;2.63;2.40;;;;;;;;;;5002988;28;20219;-60
2024/02/22 08:39:32;;;;;;;2.43;2.07;;;;;;;;;;5011940;28;20673;-60
2024/02/22 08:41:58;;;;;;;3.10;2.50;;;;;;;;;;5009985;28;20308;-60
2024/02/22 08:44:24;;;;;;;2.40;2.20;;;;;;;;;;5020316;28;20182;-60
2024/02/22 08:46:50;;;;;;;2.40;2.20;;;;;;;;;;5024110;28;20272;-60
2024/02/22 08:49:18;;;;;;;2.00;1.80;;;;;;;;;;5017254;28;20329;-60
2024/02/22 08:51:44;;;;;;;3.00;2.70;;;;;;;;;;5019690;28;20182;-60
2024/02/22 08:54:10;;;;;;;2.50;2.07;;;;;;;;;;5018002;28;20641;-60
2024/02/22 08:56:36;;;;;;;2.43;2.00;;;;;;;;;;5014041;28;20281;-60
2024/02/22 08:59:03;;;;;;;2.77;1.93;;;;;;;;;;5012218;28;20602;-60
2024/02/22 09:01:32;;;;;;;2.20;2.00;;;;;;;;;;5019919;28;20614;-60
2024/02/22 09:03:58;;;;;;;1.60;1.50;;;;;;;;;;5023347;28;20217;-60
2024/02/22 09:06:24;;;;;;;2.63;1.87;;;;;;;;;;5019647;28;20221;-60
2024/02/22 09:08:53;;;;;;;2.03;1.90;;;;;;;;;;5018961;28;20206;-60
2024/02/22 09:11:19;;;;;;;1.90;1.53;;;;;;;;;;5022453;28;20893;-60
2024/02/22 09:13:45;;;;;;;2.97;1.80;;;;;;;;;;5015702;28;20202;-63
2024/02/22 09:16:11;;;;;;;1.80;1.70;;;;;;;;;;5016921;28;20188;-62
2024/02/22 09:18:37;;;;;;;1.73;1.63;;;;;;;;;;5020160;28;20639;-62
2024/02/22 09:21:04;;;;;;;1.93;1.73;;;;;;;;;;5023501;28;20598;-63
2024/02/22 09:23:30;;;;;;;1.60;1.50;;;;;;;;;;5023182;28;20186;-63
2024/02/22 09:25:56;;;;;;;2.73;2.53;;;;;;;;;;5020345;28;20189;-63
2024/02/22 09:28:22;;;;;;;1.77;1.57;;;;;;;;;;5017747;28;20538;-63
2024/02/22 09:30:48;;;;;;;2.13;1.90;;;;;;;;;;5017109;28;20186;-62
2024/02/22 09:33:15;;;;;;;2.50;1.50;;;;;;;;;;5022443;28;20213;-63
2024/02/22 09:35:41;;;;;;;1.97;1.70;;;;;;;;;;5019633;28;20769;-63
2024/02/22 09:38:07;;;;;;;2.00;1.90;;;;;;;;;;5022307;28;20236;-61
2024/02/22 09:40:33;;;;;;;1.60;1.50;;;;;;;;;;5013636;28;20680;-62
2024/02/22 09:43:00;;;;;;;2.43;1.93;;;;;;;;;;5013151;28;20238;-62
2024/02/22 09:45:26;;;;;;;4.70;1.70;;;;;;;;;;5020576;28;20178;-62
2024/02/22 09:47:53;;;;;;;2.23;1.90;;;;;;;;;;5021940;28;20177;-63
2024/02/22 09:50:20;;;;;;;1.97;1.80;;;;;;;;;;5017917;28;20221;-62
2024/02/22 09:52:46;;;;;;;1.97;1.77;;;;;;;;;;5015834;28;20182;-63
2024/02/22 09:55:14;;;;;;;2.60;2.03;;;;;;;;;;5021865;28;20530;-63
2024/02/22 09:57:40;;;;;;;2.10;1.90;;;;;;;;;;5020384;28;20618;-63
2024/02/22 10:00:07;;;;;;;2.20;1.63;;;;;;;;;;5017847;28;20181;-60
2024/02/22 10:02:33;;;;;;;2.23;2.03;;;;;;;;;;5021974;28;20908;-62
2024/02/22 10:05:00;;;;;;;2.77;1.90;;;;;;;;;;5013208;28;20261;-63
2024/02/22 10:07:35;;;;;;;2.10;1.90;;;;;;;;;;5019916;28;20181;-62
2024/02/22 10:10:01;;;;;;;2.00;1.80;;;;;;;;;;5018373;28;20530;-62
2024/02/22 10:12:32;;;;;;;2.07;1.70;;;;;;;;;;5021260;28;20201;-63
2024/02/22 10:14:58;;;;;;;2.20;2.00;;;;;;;;;;5025286;28;20197;-62
2024/02/22 10:17:25;;;;;;;2.20;2.00;;;;;;;;;;5019799;28;20300;-63
2024/02/22 10:19:55;;;;;;;1.97;1.67;;;;;;;;;;5017632;28;20222;-62
2024/02/22 10:22:24;;;;;;;2.23;2.00;;;;;;;;;;5021006;28;20320;-61
2024/02/22 10:24:52;;;;;;;1.60;1.50;;;;;;;;;;5016293;28;20178;-61
2024/02/22 10:27:18;;;;;;;2.00;1.77;;;;;;;;;;5018424;28;20190;-61
2024/02/22 10:29:44;;;;;;;1.70;1.60;;;;;;;;;;5016588;28;20227;-60
2024/02/22 10:32:20;;;;;;;2.50;1.57;;;;;;;;;;5021999;28;20181;-61
2024/02/22 10:34:50;;;;;;;1.23;1.20;;;;;;;;;;5016737;28;20194;-61
2024/02/22 10:37:18;;;;;;;1.40;1.30;;;;;;;;;;5024638;28;20186;-61
2024/02/22 10:39:45;;;;;;;1.77;1.40;;;;;;;;;;5017057;28;20611;-61
2024/02/22 10:42:14;;;;;;;1.00;1.00;;;;;;;;;;5023002;28;20632;-61
2024/02/22 10:44:42;;;;;;;1.47;1.37;;;;;;;;;;5020050;28;20657;-61
2024/02/22 10:47:08;;;;;;;1.03;1.00;;;;;;;;;;5026030;28;20784;-61
2024/02/22 10:49:34;;;;;;;0.97;0.90;;;;;;;;;;5023970;28;20233;-61
2024/02/22 10:52:04;;;;;;;1.47;0.90;;;;;;;;;;5015290;28;20194;-61
2024/02/22 10:54:32;;;;;;;1.00;1.00;;;;;;;;;;5018667;28;20182;-61
2024/02/22 10:56:59;;;;;;;1.23;0.80;;;;;;;;;;5029990;28;20182;-60
2024/02/22 10:59:28;;;;;;;1.00;1.00;;;;;;;;;;5018128;28;20276;-60
2024/02/22 11:01:54;;;;;;;1.40;1.10;;;;;;;;;;5016897;28;20301;-60
2024/02/22 11:04:20;;;;;;;1.23;1.10;;;;;;;;;;5023771;28;20459;-60
2024/02/22 11:06:48;;;;;;;1.10;1.00;;;;;;;;;;5023159;28;20258;-61
2024/02/22 11:09:20;;;;;;;0.80;0.80;;;;;;;;;;5027477;28;20209;-60
2024/02/22 11:11:51;;;;;;;2.97;0.90;;;;;;;;;;5020590;28;20610;-60
2024/02/22 11:14:34;;;;;;;1.00;0.90;;;;;;;;;;5018278;28;20651;-60
2024/02/22 11:17:00;;;;;;;0.80;0.80;;;;;;;;;;5023272;28;20189;-60
2024/02/22 11:19:27;;;;;;;1.77;1.10;;;;;;;;;;5020044;28;20314;-60
2024/02/22 11:21:53;;;;;;;1.00;1.00;;;;;;;;;;5023649;28;20194;-60
2024/02/22 11:24:24;;;;;;;0.87;0.87;;;;;;;;;;5021979;28;20271;-60
2024/02/22 11:26:50;;;;;;;0.90;0.90;;;;;;;;;;5017335;28;20181;-60
2024/02/22 11:29:25;;;;;;;2.40;0.93;;;;;;;;;;5016610;28;20186;-60
2024/02/22 11:31:51;;;;;;;1.07;1.03;;;;;;;;;;5023963;28;20180;-60
2024/02/22 11:34:18;;;;;;;0.90;0.90;;;;;;;;;;5023075;28;20542;-59
2024/02/22 11:36:44;;;;;;;1.90;0.90;;;;;;;;;;5027201;28;20643;-60
2024/02/22 11:39:10;;;;;;;0.80;0.80;;;;;;;;;;5020132;28;20177;-60
2024/02/22 11:41:36;;;;;;;1.37;1.10;;;;;;;;;;5019375;28;20210;-59
2024/02/22 11:44:02;;;;;;;0.83;0.83;;;;;;;;;;5018367;28;20604;-60
2024/02/22 11:46:29;;;;;;;0.97;0.90;;;;;;;;;;5023957;28;20209;-60
2024/02/22 11:48:55;;;;;;;1.20;1.10;;;;;;;;;;5017021;28;20712;-60
2024/02/22 11:51:23;;;;;;;1.77;1.10;;;;;;;;;;5022475;28;20292;-60
2024/02/22 11:53:59;;;;;;;2.53;0.90;;;;;;;;;;5023403;28;20260;-59
2024/02/22 11:56:25;;;;;;;0.90;0.90;;;;;;;;;;5019634;28;20747;-60
2024/02/22 11:58:51;;;;;;;2.23;1.00;;;;;;;;;;5017730;28;20281;-59
2024/02/22 12:01:18;;;;;;;1.17;1.07;;;;;;;;;;5025902;28;20485;-60
2024/02/22 12:03:46;;;;;;;1.67;1.07;;;;;;;;;;5021210;28;20383;-59
2024/02/22 12:06:14;;;;;;;0.90;0.90;;;;;;;;;;5024643;28;20622;-57
2024/02/22 12:08:41;;;;;;;1.50;1.13;;;;;;;;;;5017922;28;20182;-57
2024/02/22 12:11:08;;;;;;;2.30;1.10;;;;;;;;;;5019687;28;21831;-57
2024/02/22 12:13:34;;;;;;;1.90;1.00;;;;;;;;;;5021421;28;20214;-56
2024/02/22 12:16:04;;;;;;;1.30;1.20;;;;;;;;;;5023690;28;20590;-57
2024/02/22 12:18:31;;;;;;;1.20;1.10;;;;;;;;;;5020666;28;20404;-58
2024/02/22 12:20:57;;;;;;;1.17;1.07;;;;;;;;;;5025515;28;20682;-57
2024/02/22 12:23:23;;;;;;;1.00;0.90;;;;;;;;;;5018532;28;20373;-56
2024/02/22 12:25:55;;;;;;;3.63;1.30;;;;;;;;;;5023782;28;20204;-59
2024/02/22 12:28:21;;;;;;;2.27;1.33;;;;;;;;;;5019514;28;20186;-60
2024/02/22 12:30:47;;;;;;;0.93;0.93;;;;;;;;;;5016895;28;20687;-59
2024/02/22 12:33:25;;;;;;;1.00;1.00;;;;;;;;;;5016438;28;20178;-60
2024/02/22 12:35:51;;;;;;;2.80;1.20;;;;;;;;;;5019591;28;20258;-59
2024/02/22 12:38:18;;;;;;;1.10;1.00;;;;;;;;;;5021370;28;20178;-59
2024/02/22 12:40:44;;;;;;;2.37;1.20;;;;;;;;;;5020937;28;20684;-60
2024/02/22 12:43:18;;;;;;;1.20;1.10;;;;;;;;;;5021775;28;20210;-60
2024/02/22 12:45:50;;;;;;;1.40;1.20;;;;;;;;;;5023587;28;20537;-61
2024/02/22 12:48:16;;;;;;;1.40;1.30;;;;;;;;;;5017549;28;20415;-61
2024/02/22 12:50:43;;;;;;;1.30;1.20;;;;;;;;;;5022328;28;20624;-60
2024/02/22 12:53:09;;;;;;;0.90;0.90;;;;;;;;;;5018864;28;20166;-60
2024/02/22 12:55:36;;;;;;;1.23;1.13;;;;;;;;;;5021605;28;20225;-60
2024/02/22 12:58:02;;;;;;;1.00;1.00;;;;;;;;;;5022588;28;20193;-60
2024/02/22 13:00:28;;;;;;;3.60;1.20;;;;;;;;;;5021640;28;20186;-61
2024/02/22 13:02:54;;;;;;;1.50;1.40;;;;;;;;;;5017580;28;20185;-60
2024/02/22 13:05:20;;;;;;;1.20;1.10;;;;;;;;;;5018625;28;20186;-60
2024/02/22 13:07:46;;;;;;;1.17;1.13;;;;;;;;;;5020160;28;20179;-60
2024/02/22 13:10:12;;;;;;;0.90;0.90;;;;;;;;;;5024173;28;20193;-60
2024/02/22 13:12:38;;;;;;;1.17;1.10;;;;;;;;;;5017400;28;20170;-59
2024/02/22 13:15:06;;;;;;;1.10;1.00;;;;;;;;;;5021546;28;20244;-61
2024/02/22 13:17:36;;;;;;;1.10;1.00;;;;;;;;;;5021111;28;20245;-60
2024/02/22 13:20:03;;;;;;;1.17;1.07;;;;;;;;;;5012062;28;20253;-61
2024/02/22 13:22:32;;;;;;;1.20;1.10;;;;;;;;;;5018478;28;20297;-60
2024/02/22 13:24:58;;;;;;;2.23;2.03;;;;;;;;;;5015141;28;20205;-60
2024/02/22 13:27:24;;;;;;;2.00;1.13;;;;;;;;;;5024434;28;20299;-60
2024/02/22 13:29:50;;;;;;;1.30;1.20;;;;;;;;;;5020152;28;20197;-60
2024/02/22 13:32:16;;;;;;;1.30;1.20;;;;;;;;;;5017076;28;20174;-60
2024/02/22 13:34:42;;;;;;;1.43;1.20;;;;;;;;;;5017948;28;20646;-60
2024/02/22 13:37:08;;;;;;;1.43;1.33;;;;;;;;;;5025426;28;20174;-60
2024/02/22 13:39:35;;;;;;;1.00;1.00;;;;;;;;;;5020226;28;20220;-60
2024/02/22 13:42:01;;;;;;;3.77;1.27;;;;;;;;;;5013166;28;20198;-60
2024/02/22 13:44:28;;;;;;;1.30;1.20;;;;;;;;;;5014934;28;20221;-60
2024/02/22 13:46:54;;;;;;;0.80;0.80;;;;;;;;;;5019314;28;20265;-60
2024/02/22 13:49:21;;;;;;;1.07;0.97;;;;;;;;;;5019476;28;20198;-59
2024/02/22 13:51:47;;;;;;;3.17;0.90;;;;;;;;;;5013960;28;20749;-60
2024/02/22 13:54:14;;;;;;;0.97;0.87;;;;;;;;;;5023773;28;20537;-58
2024/02/22 13:56:40;;;;;;;1.03;0.93;;;;;;;;;;5017174;28;20306;-58
2024/02/22 13:59:07;;;;;;;0.90;0.90;;;;;;;;;;5021082;28;20296;-58
2024/02/22 14:01:33;;;;;;;1.30;1.03;;;;;;;;;;5012496;28;20202;-59
2024/02/22 14:04:00;;;;;;;0.97;0.87;;;;;;;;;;5017361;28;20228;-58
2024/02/22 14:06:26;;;;;;;1.47;0.90;;;;;;;;;;5019865;28;20186;-59
2024/02/22 14:08:52;;;;;;;2.07;0.90;;;;;;;;;;5022686;28;20440;-58
2024/02/22 14:11:18;;;;;;;1.00;0.90;;;;;;;;;;5020218;28;20186;-59
2024/02/22 14:13:44;;;;;;;1.57;0.90;;;;;;;;;;5025114;28;20327;-58
2024/02/22 14:16:11;;;;;;;0.90;0.90;;;;;;;;;;5019854;28;20204;-60
2024/02/22 14:18:37;;;;;;;0.90;0.83;;;;;;;;;;5020558;28;20731;-58
2024/02/22 14:21:03;;;;;;;1.17;1.00;;;;;;;;;;5024819;28;20296;-60
2024/02/22 14:23:29;;;;;;;0.90;0.90;;;;;;;;;;5021605;28;20520;-58
2024/02/22 14:25:55;;;;;;;0.80;0.80;;;;;;;;;;5024218;28;20182;-58
2024/02/22 14:28:21;;;;;;;1.00;0.93;;;;;;;;;;5026210;28;20185;-57
2024/02/22 14:30:47;;;;;;;0.80;0.80;;;;;;;;;;5024850;28;20570;-61
2024/02/22 14:33:14;;;;;;;2.03;1.20;;;;;;;;;;5022932;28;20255;-59
2024/02/22 14:35:40;;;;;;;1.00;0.90;;;;;;;;;;5022376;28;20213;-61
2024/02/22 14:38:09;;;;;;;0.80;0.80;;;;;;;;;;5024139;28;20180;-59
2024/02/22 14:40:35;;;;;;;0.93;0.90;;;;;;;;;;5023277;28;20205;-60